METAR AND TAF INFORMATION
METAR FOR SBFN
ADDS - METARS form results

(0710 UTC 08 May 2021)
Data provider http://aviationweather.gov/metar/data/
 
METAR text: SBFN 080700Z AUTO 13005KT CAVOK 25/23 Q1013 RERA
Conditions at: SBFN (FERNANDO DE NORO, BR) observed 0700 UTC 08 May 2021
Temperature: 25.0°C (77°F)
Dewpoint: 23.0°C (73°F) [RH = 89%]
Pressure (altimeter): 29.91 inches Hg (1013.0 mb)
Winds: from the SE (130 degrees) at 6 MPH (5 knots; 2.6 m/s)
Visibility: 6 or more miles (10+ km)
Ceiling: ceiling and visibility are OK
Clouds: unknown
Weather: no significant weather observed at this time

METAR text: SBFN 080625Z AUTO 14005KT 9999 -RA FEW017 BKN033 25/23 Q1013 RERA
Conditions at: SBFN (FERNANDO DE NORO, BR) observed 0625 UTC 08 May 2021
Temperature: 25.0°C (77°F)
Dewpoint: 23.0°C (73°F) [RH = 89%]
Pressure (altimeter): 29.91 inches Hg (1013.0 mb)
Winds: from the SE (140 degrees) at 6 MPH (5 knots; 2.6 m/s)
Visibility: 6 or more miles (10+ km)
Ceiling: 3300 feet AGL
Clouds: few clouds at 1700 feet AGL
broken clouds at 3300 feet AGL
Weather: -RA  (light rain)

METAR text: SBFN 080611Z AUTO 12010KT 3800 +RA SCT013 BKN015 24/23 Q1013
Conditions at: SBFN (FERNANDO DE NORO, BR) observed 0611 UTC 08 May 2021
Temperature: 24.0°C (75°F)
Dewpoint: 23.0°C (73°F) [RH = 94%]
Pressure (altimeter): 29.91 inches Hg (1013.0 mb)
Winds: from the ESE (120 degrees) at 12 MPH (10 knots; 5.1 m/s)
Visibility: 2.36 miles (3.80 km)
Ceiling: 1500 feet AGL
Clouds: scattered clouds at 1300 feet AGL
broken clouds at 1500 feet AGL
Weather: +RA  (heavy rain)

Forecast for: SBFN (FERNANDO DE NORO, BR)
Text: TAF SBFN 080230Z 0806/0818 13010KT 8000 SCT012 BKN016 TN26/0806Z TX29/0818Z
Forecast period: 0600 to 1800 UTC 08 May 2021
Forecast type: FROM: standard forecast or significant change
Winds: from the SE (130 degrees) at 12 MPH (10 knots; 5.1 m/s)
Visibility: 5 miles (8 km)
Ceiling: 1600 feet AGL
Clouds: scattered clouds at 1200 feet AGL
broken clouds at 1600 feet AGL
Weather: no significant weather forecast for this period
Text: PROB40 0808/0810 5000 RA SCT007 BKN012 RMK PGU
Forecast period: 0800 to 1000 UTC 08 May 2021
Forecast type: PROBABLE: 40 percent likelihood of the following during this time
Visibility: 3 miles (5 km)
Ceiling: 1200 feet AGL
Clouds: scattered clouds at 700 feet AGL
broken clouds at 1200 feet AGL
Weather: RA  (moderate rain)

 AIRPORT MAP

 RUNWAY INFORMATION
Runway 12 Runway length 6053 ft Runway width 148 ft
Runway elevation 0 ft Runway displaced threshold 0 ft Runway heading 0
Runway 30 Runway length 6053 ft Runway width 148 ft
Runway elevation 0 ft Runway displaced threshold 0 ft Runway heading 0

 AIRPORT FREQUENCIES
Type AFIS Name NORONHA RD Frequency 125.9 MHZ

 AIRPORT NEAR NAVIGATION AIDS
Type VOR-DME Name Fernando Frequency 113700 KHZ
Type NDB Name Noronha Frequency 300 KHZ



Powered by Virtual Airlines Manager [v2.6.2]